createdAt,value
2023-03-01T00:00:15.538Z,29.63
2023-03-01T00:03:05.469Z,28.13
2023-03-01T00:05:55.547Z,29.60
2023-03-01T00:08:45.931Z,27.10
2023-03-01T00:11:38.245Z,28.47
2023-03-01T00:14:28.347Z,27.20
2023-03-01T00:17:18.437Z,27.10
2023-03-01T00:20:11.391Z,26.73
2023-03-01T00:23:01.949Z,28.00
2023-03-01T00:25:54.060Z,27.47
2023-03-01T00:28:45.518Z,30.67
2023-03-01T00:31:35.946Z,27.20
2023-03-01T00:34:25.732Z,26.10
2023-03-01T00:37:15.535Z,27.50
2023-03-01T00:40:07.564Z,29.47
2023-03-01T00:42:58.011Z,30.40
2023-03-01T00:45:51.329Z,28.47
2023-03-01T00:48:43.829Z,27.87
2023-03-01T00:51:34.336Z,29.77
2023-03-01T00:54:24.151Z,27.87
2023-03-01T00:57:14.528Z,28.33
2023-03-01T01:00:05.541Z,27.67
2023-03-01T01:02:56.961Z,28.13
2023-03-01T01:05:47.028Z,26.83
2023-03-01T01:08:37.140Z,30.53
2023-03-01T01:11:30.411Z,28.07
2023-03-01T01:14:20.490Z,27.33
2023-03-01T01:17:10.633Z,28.93
2023-03-01T01:20:01.692Z,26.70
2023-03-01T01:22:52.615Z,26.70
2023-03-01T01:25:42.890Z,33.40
2023-03-01T01:28:32.592Z,27.40
2023-03-01T01:31:25.008Z,30.83
2023-03-01T01:34:17.886Z,31.53
2023-03-01T01:37:09.406Z,25.93
2023-03-01T01:39:58.978Z,28.03
2023-03-01T01:42:49.370Z,27.40
2023-03-01T01:45:39.994Z,27.70
2023-03-01T01:48:41.740Z,27.53
2023-03-01T01:51:39.843Z,30.40
2023-03-01T01:54:34.294Z,29.93
2023-03-01T01:57:26.637Z,27.90
2023-03-01T02:00:19.921Z,28.07
2023-03-01T02:03:13.821Z,28.10
2023-03-01T02:06:07.171Z,27.67
2023-03-01T02:09:00.957Z,30.30
2023-03-01T02:11:54.174Z,28.87
2023-03-01T02:14:44.852Z,27.80
2023-03-01T02:17:35.830Z,28.47
2023-03-01T02:20:31.623Z,29.07
2023-03-01T02:23:22.030Z,29.50
2023-03-01T02:26:19.069Z,28.80
2023-03-01T02:29:10.894Z,27.63
2023-03-01T02:32:03.140Z,28.37
2023-03-01T02:34:55.629Z,34.93
2023-03-01T02:37:45.981Z,28.43
2023-03-01T02:40:37.541Z,26.30
2023-03-01T02:43:30.884Z,28.47
2023-03-01T02:46:25.219Z,28.40
2023-03-01T02:49:25.377Z,28.47
2023-03-01T02:52:24.747Z,27.77
2023-03-01T02:55:16.134Z,30.73
2023-03-01T02:58:07.426Z,34.30
2023-03-01T03:00:58.985Z,27.53
2023-03-01T03:03:51.112Z,29.77
2023-03-01T03:06:42.811Z,30.27
2023-03-01T03:09:32.734Z,27.70
2023-03-01T03:12:22.891Z,31.47
2023-03-01T03:15:16.102Z,28.73
2023-03-01T03:18:11.171Z,28.17
2023-03-01T03:21:03.233Z,30.50
2023-03-01T03:23:54.400Z,28.30
2023-03-01T03:26:44.382Z,31.40
2023-03-01T03:29:37.965Z,28.10
2023-03-01T03:32:28.492Z,28.40
2023-03-01T03:35:18.986Z,28.40
2023-03-01T03:38:18.168Z,29.80
2023-03-01T03:41:10.024Z,31.17
2023-03-01T03:44:04.284Z,28.23
2023-03-01T03:46:54.407Z,29.60
2023-03-01T03:49:47.512Z,28.70
2023-03-01T03:52:37.405Z,31.37
2023-03-01T03:55:31.906Z,28.13
2023-03-01T03:58:23.631Z,29.13
2023-03-01T04:01:14.337Z,29.00
2023-03-01T04:04:05.493Z,31.43
2023-03-01T04:11:30.380Z,31.00
2023-03-01T04:14:20.568Z,28.93
2023-03-01T04:17:10.678Z,28.60
2023-03-01T04:20:10.273Z,27.73
2023-03-01T04:23:01.484Z,29.10
2023-03-01T04:25:55.470Z,29.53
2023-03-01T04:28:50.379Z,31.70
2023-03-01T04:31:40.907Z,28.43
2023-03-01T04:34:31.367Z,32.20
2023-03-01T04:37:21.665Z,28.50
2023-03-01T04:40:17.594Z,29.77
2023-03-01T04:43:08.097Z,32.03
2023-03-01T04:46:04.259Z,28.80
2023-03-01T04:48:54.705Z,29.00
2023-03-01T04:51:45.644Z,34.13
2023-03-01T04:54:37.047Z,29.00
2023-03-01T04:57:27.856Z,29.43
2023-03-01T05:00:22.440Z,31.93
2023-03-01T05:03:19.702Z,29.17
2023-03-01T05:06:10.704Z,30.00
2023-03-01T05:09:01.106Z,30.90
2023-03-01T05:11:53.139Z,32.47
2023-03-01T05:14:43.330Z,29.40
2023-03-01T05:17:33.324Z,30.90
2023-03-01T05:20:26.243Z,28.60
2023-03-01T05:23:16.571Z,31.40
2023-03-01T05:26:16.286Z,28.30
2023-03-01T05:29:16.299Z,32.90
2023-03-01T05:32:06.959Z,28.83
2023-03-01T05:34:57.513Z,28.60
2023-03-01T05:37:50.061Z,30.00
2023-03-01T05:40:39.724Z,28.00
2023-03-01T05:43:30.480Z,29.77
2023-03-01T05:46:21.279Z,29.17
2023-03-01T05:49:11.329Z,34.00
2023-03-01T05:52:01.313Z,30.60
2023-03-01T05:54:53.138Z,32.00
2023-03-01T05:57:43.803Z,28.40
2023-03-01T06:00:34.663Z,43.73
2023-03-01T06:03:24.538Z,29.60
2023-03-01T06:06:15.023Z,29.13
2023-03-01T06:09:05.010Z,30.07
2023-03-01T06:11:56.132Z,34.43
2023-03-01T06:14:46.665Z,32.13
2023-03-01T06:17:38.538Z,31.60
2023-03-01T06:20:29.779Z,30.83
2023-03-01T06:23:19.873Z,31.73
2023-03-01T06:26:11.415Z,30.50
2023-03-01T06:29:03.120Z,32.90
2023-03-01T06:31:53.339Z,30.17
2023-03-01T06:34:43.184Z,28.40
2023-03-01T06:37:33.186Z,30.70
2023-03-01T06:40:23.343Z,36.17
2023-03-01T06:43:14.312Z,33.90
2023-03-01T06:46:08.844Z,29.93
2023-03-01T06:49:02.186Z,32.33
2023-03-01T06:51:52.657Z,27.67
2023-03-01T06:54:42.320Z,30.67
2023-03-01T06:57:32.512Z,40.47
2023-03-01T07:00:23.472Z,29.90
2023-03-01T07:03:14.620Z,32.50
2023-03-01T07:06:04.814Z,31.97
2023-03-01T07:08:54.705Z,32.07
2023-03-01T07:11:44.699Z,34.53
2023-03-01T07:14:34.880Z,30.03
2023-03-01T07:17:25.186Z,27.13
2023-03-01T07:20:17.162Z,30.77
2023-03-01T07:23:14.151Z,32.53
2023-03-01T07:26:04.676Z,31.47
2023-03-01T07:28:54.623Z,30.60
2023-03-01T07:31:44.954Z,28.70
2023-03-01T07:34:38.487Z,31.80
2023-03-01T07:37:29.782Z,29.67
2023-03-01T07:40:24.931Z,30.20
2023-03-01T07:43:14.986Z,32.27
2023-03-01T07:46:17.512Z,31.63
2023-03-01T07:49:09.961Z,29.37
2023-03-01T07:52:06.060Z,29.70
2023-03-01T07:54:58.134Z,29.73
2023-03-01T07:57:48.116Z,29.07
2023-03-01T08:00:37.803Z,27.63
2023-03-01T08:03:27.551Z,29.20
2023-03-01T08:06:19.224Z,31.80
2023-03-01T08:09:09.710Z,32.60
2023-03-01T08:12:01.754Z,29.80
2023-03-01T08:14:51.898Z,32.77
2023-03-01T08:17:41.256Z,33.27
2023-03-01T08:20:30.638Z,31.37
2023-03-01T08:23:19.855Z,32.73
2023-03-01T08:26:11.844Z,28.93
2023-03-01T08:29:04.020Z,29.60
2023-03-01T08:32:11.831Z,29.50
2023-03-01T08:35:02.257Z,29.30
2023-03-01T08:37:52.503Z,38.13
2023-03-01T08:40:42.874Z,35.63
2023-03-01T08:43:33.264Z,28.70
2023-03-01T08:46:24.920Z,29.93
2023-03-01T08:49:16.844Z,32.30
2023-03-01T08:52:07.352Z,27.27
2023-03-01T08:54:57.297Z,27.33
2023-03-01T08:57:50.382Z,27.07
2023-03-01T09:00:41.460Z,28.40
2023-03-01T09:03:32.907Z,27.33
2023-03-01T09:06:23.197Z,28.80
2023-03-01T09:09:17.465Z,29.47
2023-03-01T09:12:10.125Z,25.30
2023-03-01T09:14:59.815Z,27.07
2023-03-01T09:17:49.804Z,28.60
2023-03-01T09:20:41.120Z,29.10
2023-03-01T09:23:30.794Z,36.50
2023-03-01T09:26:23.140Z,33.87
2023-03-01T09:29:13.032Z,28.73
2023-03-01T09:32:03.307Z,25.87
2023-03-01T09:35:06.224Z,30.03
2023-03-01T09:37:57.160Z,30.93
2023-03-01T09:40:48.120Z,26.50
2023-03-01T09:43:47.447Z,29.30
2023-03-01T09:47:01.988Z,26.30
2023-03-01T09:49:59.769Z,30.70
2023-03-01T09:52:52.306Z,28.73
2023-03-01T09:55:46.389Z,23.60
2023-03-01T09:58:44.375Z,27.97
2023-03-01T10:01:37.730Z,26.13
2023-03-01T10:04:37.805Z,30.73
2023-03-01T10:07:35.309Z,27.20
2023-03-01T10:10:34.640Z,26.57
2023-03-01T10:13:29.929Z,25.97
2023-03-01T10:16:22.794Z,26.33
2023-03-01T10:19:24.984Z,26.60
2023-03-01T10:22:22.854Z,28.30
2023-03-01T10:25:15.835Z,27.63
2023-03-01T10:28:09.988Z,27.30
2023-03-01T10:31:07.734Z,28.27
2023-03-01T10:33:59.982Z,24.80
2023-03-01T10:36:52.336Z,31.80
2023-03-01T10:39:57.471Z,24.50
2023-03-01T10:42:50.830Z,22.70
2023-03-01T10:45:42.229Z,27.97
2023-03-01T10:48:33.945Z,27.13
2023-03-01T10:51:24.787Z,27.80
2023-03-01T10:54:20.396Z,23.83
2023-03-01T10:57:30.868Z,25.23
2023-03-01T11:00:24.657Z,22.70
2023-03-01T11:03:17.697Z,23.93
2023-03-01T11:06:23.267Z,23.73
2023-03-01T11:09:19.053Z,25.03
2023-03-01T11:12:17.284Z,28.13
2023-03-01T11:15:07.996Z,26.13
2023-03-01T11:18:09.299Z,26.20
2023-03-01T11:21:04.995Z,22.40
2023-03-01T11:23:57.362Z,22.23
2023-03-01T11:26:50.522Z,20.03
2023-03-01T11:29:48.804Z,22.63
2023-03-01T11:32:44.019Z,22.43
2023-03-01T11:35:36.888Z,23.60
2023-03-01T11:38:28.703Z,21.87
2023-03-01T11:41:23.193Z,23.27
2023-03-01T11:44:16.970Z,18.60
2023-03-01T11:47:36.327Z,25.73
2023-03-01T11:50:33.507Z,21.03
2023-03-01T11:53:40.397Z,18.60
2023-03-01T11:56:35.491Z,20.40
2023-03-01T11:59:48.485Z,22.20
2023-03-01T12:03:10.303Z,20.90
2023-03-01T12:06:32.364Z,20.13
2023-03-01T12:09:37.235Z,21.30
2023-03-01T12:12:49.813Z,29.30
2023-03-01T12:15:49.928Z,19.03
2023-03-01T12:19:10.067Z,22.43
2023-03-01T12:22:24.120Z,19.80
2023-03-01T12:25:19.314Z,20.70
2023-03-01T12:28:31.690Z,20.07
2023-03-01T12:31:39.216Z,21.37
2023-03-01T12:34:45.713Z,19.40
2023-03-01T12:37:43.058Z,25.10
2023-03-01T12:40:49.479Z,17.13
2023-03-01T12:43:53.631Z,18.73
2023-03-01T12:47:04.896Z,19.27
2023-03-01T12:49:57.640Z,17.23
2023-03-01T12:52:50.222Z,19.50
2023-03-01T12:55:42.581Z,19.77
2023-03-01T12:58:48.694Z,17.63
2023-03-01T13:01:44.978Z,18.43
2023-03-01T13:04:55.536Z,17.40
2023-03-01T13:07:53.427Z,20.60
2023-03-01T13:10:49.643Z,20.40
2023-03-01T13:13:40.128Z,19.23
2023-03-01T13:16:46.459Z,18.03
2023-03-01T13:19:37.314Z,18.47
2023-03-01T13:22:32.722Z,19.27
2023-03-01T13:25:25.710Z,16.43
2023-03-01T13:28:44.356Z,17.50
2023-03-01T13:32:06.087Z,18.90
2023-03-01T13:35:00.900Z,18.20
2023-03-01T13:37:50.460Z,18.27
2023-03-01T13:41:01.635Z,22.47
2023-03-01T13:43:51.120Z,16.77
2023-03-01T13:46:41.034Z,17.90
2023-03-01T13:49:55.630Z,19.50
2023-03-01T13:52:51.818Z,20.60
2023-03-01T13:55:45.975Z,20.27
2023-03-01T13:58:36.980Z,18.57
2023-03-01T14:01:29.463Z,18.83
2023-03-01T14:04:23.523Z,17.33
2023-03-01T14:07:19.610Z,18.00
2023-03-01T14:10:10.788Z,19.30
2023-03-01T14:13:15.622Z,19.40
2023-03-01T14:16:24.800Z,20.93
2023-03-01T14:19:32.053Z,20.10
2023-03-01T14:22:26.002Z,20.67
2023-03-01T14:25:27.109Z,21.07
2023-03-01T14:28:19.128Z,20.23
2023-03-01T14:31:41.097Z,20.50
2023-03-01T14:34:37.889Z,19.87
2023-03-01T14:37:30.776Z,18.90
2023-03-01T14:40:36.617Z,19.40
2023-03-01T14:43:27.080Z,21.27
2023-03-01T14:46:22.460Z,19.93
2023-03-01T14:49:14.615Z,20.77
2023-03-01T14:52:06.264Z,22.03
2023-03-01T14:54:58.020Z,20.43
2023-03-01T14:57:49.462Z,19.40
2023-03-01T15:00:38.714Z,21.70
2023-03-01T15:03:32.818Z,21.37
2023-03-01T15:06:26.169Z,19.57
2023-03-01T15:09:18.032Z,19.20
2023-03-01T15:12:42.181Z,19.77
2023-03-01T15:15:38.669Z,19.93
2023-03-01T15:18:29.586Z,18.53
2023-03-01T15:21:20.481Z,21.13
2023-03-01T15:24:21.496Z,18.40
2023-03-01T15:27:17.024Z,18.00
2023-03-01T15:30:06.916Z,19.43
2023-03-01T15:33:32.576Z,18.90
2023-03-01T15:36:35.089Z,17.87
2023-03-01T15:39:38.521Z,17.30
2023-03-01T15:42:40.826Z,18.50
2023-03-01T15:45:31.262Z,18.70
2023-03-01T15:48:21.950Z,17.20
2023-03-01T15:51:15.381Z,17.70
2023-03-01T15:54:11.326Z,18.67
2023-03-01T15:57:01.227Z,19.90
2023-03-01T15:59:50.936Z,18.70
2023-03-01T16:02:40.760Z,18.83
2023-03-01T16:05:32.904Z,19.13
2023-03-01T16:08:24.676Z,19.43
2023-03-01T16:11:18.355Z,20.87
2023-03-01T16:14:07.637Z,19.63
2023-03-01T16:16:57.210Z,19.50
2023-03-01T16:19:46.368Z,20.13
2023-03-01T16:22:35.586Z,20.50
2023-03-01T16:25:26.845Z,23.80
2023-03-01T16:28:15.880Z,20.00
2023-03-01T16:31:05.759Z,22.63
2023-03-01T16:33:55.585Z,20.40
2023-03-01T16:36:45.173Z,20.17
2023-03-01T16:39:34.545Z,22.97
2023-03-01T16:42:24.840Z,18.90
2023-03-01T16:45:23.847Z,22.87
2023-03-01T16:48:13.731Z,21.53
2023-03-01T16:51:04.103Z,20.20
2023-03-01T16:53:53.832Z,22.30
2023-03-01T16:56:43.094Z,24.73
2023-03-01T16:59:33.745Z,21.17
2023-03-01T17:02:22.707Z,25.27
2023-03-01T17:05:13.042Z,21.73
2023-03-01T17:08:02.392Z,24.23
2023-03-01T17:10:52.119Z,21.20
2023-03-01T17:13:42.322Z,22.17
2023-03-01T17:16:33.760Z,22.00
2023-03-01T17:19:23.677Z,20.80
2023-03-01T17:22:14.309Z,22.60
2023-03-01T17:25:03.957Z,22.83
2023-03-01T17:27:53.557Z,22.63
2023-03-01T17:30:45.483Z,22.67
2023-03-01T17:33:38.991Z,19.53
2023-03-01T17:36:28.756Z,20.00
2023-03-01T17:39:20.866Z,21.90
2023-03-01T17:42:10.658Z,21.87
2023-03-01T17:45:00.969Z,20.37
2023-03-01T17:47:50.865Z,19.00
2023-03-01T17:50:42.005Z,22.93
2023-03-01T17:53:31.231Z,20.20
2023-03-01T17:56:20.672Z,20.07
2023-03-01T17:59:10.429Z,21.23
2023-03-01T18:02:01.907Z,20.00
2023-03-01T18:04:52.069Z,20.70
2023-03-01T18:07:43.251Z,19.73
2023-03-01T18:10:33.512Z,19.50
2023-03-01T18:13:23.447Z,23.43
2023-03-01T18:16:15.302Z,21.53
2023-03-01T18:19:05.548Z,22.97
2023-03-01T18:21:56.324Z,21.53
2023-03-01T18:24:47.291Z,19.00
2023-03-01T18:27:37.263Z,23.27
2023-03-01T18:30:27.270Z,20.10
2023-03-01T18:33:16.977Z,20.60
2023-03-01T18:36:07.604Z,20.33
2023-03-01T18:38:58.192Z,20.67
2023-03-01T18:41:49.427Z,18.93
2023-03-01T18:44:39.334Z,20.20
2023-03-01T18:47:28.606Z,19.47
2023-03-01T18:50:21.745Z,19.43
2023-03-01T18:53:12.806Z,18.63
2023-03-01T18:56:02.845Z,18.50
2023-03-01T18:58:54.067Z,21.97
2023-03-01T19:01:44.083Z,21.90
2023-03-01T19:04:34.031Z,17.03
2023-03-01T19:07:24.423Z,20.53
2023-03-01T19:10:14.682Z,19.57
2023-03-01T19:13:03.766Z,19.37
2023-03-01T19:15:54.896Z,22.93
2023-03-01T19:18:50.405Z,21.57
2023-03-01T19:21:40.180Z,18.07
2023-03-01T19:24:30.566Z,23.60
2023-03-01T19:27:19.803Z,18.40
2023-03-01T19:30:10.955Z,22.23
2023-03-01T19:33:01.900Z,21.23
2023-03-01T19:35:51.671Z,28.90
2023-03-01T19:38:43.227Z,19.17
2023-03-01T19:41:33.606Z,21.40
2023-03-01T19:44:25.256Z,29.23
2023-03-01T19:47:15.274Z,19.53
2023-03-01T19:50:07.105Z,17.00
2023-03-01T19:52:56.636Z,20.23
2023-03-01T19:55:46.625Z,19.53
2023-03-01T19:58:36.760Z,24.20
2023-03-01T20:01:28.414Z,17.00
2023-03-01T20:04:18.060Z,19.63
2023-03-01T20:07:08.829Z,24.23
2023-03-01T20:09:58.369Z,20.13
2023-03-01T20:12:48.285Z,27.60
2023-03-01T20:15:38.943Z,26.33
2023-03-01T20:18:28.774Z,30.23
2023-03-01T20:21:24.475Z,20.60
2023-03-01T20:24:15.899Z,21.03
2023-03-01T20:27:05.896Z,19.13
2023-03-01T20:29:55.832Z,26.40
2023-03-01T20:32:45.805Z,26.00
2023-03-01T20:35:36.429Z,21.23
2023-03-01T20:38:27.852Z,19.80
2023-03-01T20:41:20.094Z,20.87
2023-03-01T20:44:10.470Z,21.37
2023-03-01T20:47:00.578Z,19.90
2023-03-01T20:49:52.701Z,22.00
2023-03-01T20:52:47.560Z,19.00
2023-03-01T20:55:37.919Z,21.73
2023-03-01T20:58:33.105Z,21.70
2023-03-01T21:01:30.069Z,20.03
2023-03-01T21:04:23.286Z,23.83
2023-03-01T21:07:13.356Z,22.93
2023-03-01T21:10:03.306Z,19.57
2023-03-01T21:12:53.706Z,23.90
2023-03-01T21:15:45.206Z,21.50
2023-03-01T21:18:37.320Z,20.97
2023-03-01T21:21:30.199Z,20.60
2023-03-01T21:24:20.187Z,27.40
2023-03-01T21:27:10.340Z,23.07
2023-03-01T21:30:00.156Z,21.67
2023-03-01T21:32:51.264Z,23.23
2023-03-01T21:35:41.218Z,27.20
2023-03-01T21:38:35.634Z,22.00
2023-03-01T21:41:27.968Z,22.43
2023-03-01T21:44:17.857Z,24.43
2023-03-01T21:47:07.302Z,26.47
2023-03-01T21:49:58.264Z,21.33
2023-03-01T21:52:47.944Z,23.40
2023-03-01T21:55:38.022Z,23.03
2023-03-01T21:58:29.326Z,26.03
2023-03-01T22:01:21.943Z,22.43
2023-03-01T22:04:16.494Z,26.70
2023-03-01T22:07:07.492Z,24.40
2023-03-01T22:09:57.152Z,24.30
2023-03-01T22:12:46.948Z,24.13
2023-03-01T22:15:36.836Z,25.70
2023-03-01T22:18:26.612Z,23.87
2023-03-01T22:21:16.920Z,27.33
2023-03-01T22:24:09.027Z,27.00
2023-03-01T22:26:59.834Z,30.03
2023-03-01T22:29:49.536Z,23.73
2023-03-01T22:32:40.447Z,27.33
2023-03-01T22:35:30.619Z,25.43
2023-03-01T22:38:21.041Z,25.00
2023-03-01T22:41:13.118Z,27.97
2023-03-01T22:44:03.287Z,25.10
2023-03-01T22:46:53.774Z,28.67
2023-03-01T22:49:45.075Z,31.13
2023-03-01T22:52:35.280Z,27.43
2023-03-01T22:55:25.257Z,27.40
2023-03-01T22:58:16.572Z,29.20
2023-03-01T23:01:12.347Z,24.70
2023-03-01T23:04:02.758Z,27.30
2023-03-01T23:06:54.512Z,28.83
2023-03-01T23:09:45.636Z,27.80
2023-03-01T23:12:36.030Z,28.33
2023-03-01T23:15:27.140Z,28.63
2023-03-01T23:18:16.838Z,33.63
2023-03-01T23:21:13.156Z,27.20
2023-03-01T23:24:03.094Z,29.47
2023-03-01T23:26:54.988Z,26.87
2023-03-01T23:29:44.976Z,36.87
2023-03-01T23:32:40.619Z,29.70
2023-03-01T23:35:30.591Z,27.93
2023-03-01T23:38:20.998Z,32.43
2023-03-01T23:41:11.152Z,27.03
2023-03-01T23:44:02.666Z,28.40
2023-03-01T23:46:52.531Z,27.50
2023-03-01T23:49:44.064Z,27.80
2023-03-01T23:52:39.875Z,26.20
2023-03-01T23:55:30.295Z,30.93
2023-03-01T23:58:28.784Z,29.97
